createdAt,value
2023-01-30T00:01:29.810Z,99050.13
2023-01-30T00:03:56.426Z,99055.66
2023-01-30T00:06:23.340Z,99059.81
2023-01-30T00:08:49.836Z,99053.59
2023-01-30T00:11:17.855Z,99060.00
2023-01-30T00:13:44.468Z,99064.78
2023-01-30T00:16:11.736Z,99060.91
2023-01-30T00:18:40.160Z,99084.53
2023-01-30T00:21:09.047Z,99072.56
2023-01-30T00:23:38.571Z,99050.84
2023-01-30T00:26:09.888Z,99057.41
2023-01-30T00:28:40.146Z,99081.44
2023-01-30T00:31:07.470Z,99043.31
2023-01-30T00:33:36.380Z,99054.63
2023-01-30T00:36:03.193Z,99061.31
2023-01-30T00:38:29.756Z,99060.38
2023-01-30T00:40:56.245Z,99073.44
2023-01-30T00:43:41.234Z,99015.66
2023-01-30T00:46:58.604Z,99048.75
2023-01-30T00:49:25.111Z,99047.50
2023-01-30T00:51:51.756Z,99020.22
2023-01-30T00:54:18.230Z,99013.50
2023-01-30T00:56:44.713Z,99012.66
2023-01-30T00:59:11.261Z,99026.44
2023-01-30T01:01:38.339Z,99002.88
2023-01-30T01:04:08.900Z,99013.44
2023-01-30T01:06:35.441Z,99014.28
2023-01-30T01:09:02.171Z,99006.50
2023-01-30T01:11:28.711Z,98971.59
2023-01-30T01:14:00.460Z,98972.63
2023-01-30T01:16:28.807Z,98986.38
2023-01-30T01:18:55.716Z,98991.72
2023-01-30T01:21:23.301Z,99006.91
2023-01-30T01:23:55.705Z,98984.69
2023-01-30T01:26:23.235Z,98995.59
2023-01-30T01:28:50.037Z,98998.19
2023-01-30T01:31:17.335Z,98992.13
2023-01-30T01:33:44.070Z,98999.88
2023-01-30T01:36:10.686Z,98988.88
2023-01-30T01:38:37.648Z,98987.47
2023-01-30T01:41:07.700Z,98995.53
2023-01-30T01:43:37.414Z,99010.38
2023-01-30T01:46:10.627Z,99015.38
2023-01-30T01:48:52.281Z,99013.41
2023-01-30T01:51:24.470Z,99022.41
2023-01-30T01:54:08.682Z,99018.59
2023-01-30T01:56:38.653Z,99047.19
2023-01-30T01:59:13.630Z,99033.34
2023-01-30T02:01:42.245Z,99031.22
2023-01-30T02:04:11.958Z,99019.41
2023-01-30T02:06:42.165Z,99058.75
2023-01-30T02:09:10.973Z,99046.47
2023-01-30T02:11:47.740Z,99041.94
2023-01-30T02:14:15.933Z,99083.44
2023-01-30T02:16:44.943Z,99093.38
2023-01-30T02:19:25.767Z,99120.34
2023-01-30T02:22:05.315Z,99101.16
2023-01-30T02:24:57.794Z,99139.03
2023-01-30T02:27:41.744Z,99134.50
2023-01-30T02:30:27.873Z,99137.94
2023-01-30T02:33:00.299Z,99138.22
2023-01-30T02:35:44.103Z,99124.53
2023-01-30T02:38:27.119Z,99153.63
2023-01-30T02:41:02.575Z,99145.56
2023-01-30T02:43:59.941Z,99134.13
2023-01-30T02:46:54.904Z,99115.66
2023-01-30T02:49:30.773Z,99111.22
2023-01-30T02:52:00.278Z,99114.19
2023-01-30T02:54:27.034Z,99117.19
2023-01-30T02:56:58.045Z,99122.94
2023-01-30T02:59:36.965Z,99138.88
2023-01-30T03:02:41.102Z,99127.00
2023-01-30T03:05:20.328Z,99096.75
2023-01-30T03:08:17.432Z,99121.03
2023-01-30T03:10:53.122Z,99104.50
2023-01-30T03:13:27.647Z,99114.91
2023-01-30T03:16:00.032Z,99105.47
2023-01-30T03:18:26.656Z,99104.69
2023-01-30T03:20:53.659Z,99099.41
2023-01-30T03:23:20.122Z,99096.06
2023-01-30T03:25:48.700Z,99081.72
2023-01-30T03:28:20.439Z,99063.31
2023-01-30T03:30:47.069Z,99073.72
2023-01-30T03:33:13.583Z,99072.84
2023-01-30T03:35:40.556Z,99065.31
2023-01-30T03:38:07.194Z,99066.47
2023-01-30T03:40:33.681Z,99074.69
2023-01-30T03:43:00.181Z,99065.53
2023-01-30T03:45:26.695Z,99037.34
2023-01-30T03:47:53.271Z,99068.06
2023-01-30T03:50:19.851Z,99051.97
2023-01-30T03:52:46.374Z,99038.41
2023-01-30T03:55:12.922Z,99059.28
2023-01-30T03:57:39.353Z,99062.41
2023-01-30T04:00:06.568Z,99057.66
2023-01-30T04:02:33.056Z,99053.97
2023-01-30T04:04:59.540Z,99043.91
2023-01-30T04:07:28.999Z,99037.28
2023-01-30T04:09:55.539Z,99046.16
2023-01-30T04:12:22.131Z,99039.41
2023-01-30T04:14:48.649Z,99061.47
2023-01-30T04:17:15.117Z,99050.63
2023-01-30T04:19:41.587Z,99021.00
2023-01-30T04:22:08.109Z,99023.28
2023-01-30T04:24:34.578Z,99052.69
2023-01-30T04:27:01.003Z,99049.16
2023-01-30T04:29:27.492Z,99035.38
2023-01-30T04:31:54.000Z,99011.00
2023-01-30T04:34:20.438Z,99048.91
2023-01-30T04:36:46.956Z,99043.75
2023-01-30T04:39:13.469Z,99033.09
2023-01-30T04:41:40.024Z,99031.31
2023-01-30T04:44:06.612Z,99000.03
2023-01-30T04:46:33.065Z,99009.03
2023-01-30T04:48:59.554Z,99025.75
2023-01-30T04:51:26.067Z,99029.22
2023-01-30T04:53:52.486Z,99021.66
2023-01-30T04:56:21.346Z,99051.78
2023-01-30T04:58:47.760Z,99033.75
2023-01-30T05:01:33.914Z,99046.13
2023-01-30T05:04:00.599Z,99028.53
2023-01-30T05:06:27.635Z,99028.53
2023-01-30T05:08:56.037Z,99046.53
2023-01-30T05:11:24.109Z,99048.28
2023-01-30T05:13:51.651Z,99035.66
2023-01-30T05:16:19.692Z,99025.16
2023-01-30T05:18:46.292Z,99042.94
2023-01-30T05:21:25.921Z,99039.09
2023-01-30T05:23:56.248Z,99023.94
2023-01-30T05:26:23.048Z,99014.28
2023-01-30T05:28:57.269Z,99014.94
2023-01-30T05:31:24.372Z,99044.72
2023-01-30T05:33:55.364Z,99037.97
2023-01-30T05:36:23.943Z,99042.75
2023-01-30T05:38:50.505Z,99029.31
2023-01-30T05:41:17.746Z,99024.53
2023-01-30T05:43:44.690Z,99025.41
2023-01-30T05:46:12.680Z,99049.53
2023-01-30T05:48:39.549Z,99040.13
2023-01-30T05:51:06.421Z,99050.28
2023-01-30T05:53:41.769Z,99049.63
2023-01-30T05:56:09.506Z,99022.47
2023-01-30T05:58:36.042Z,99052.41
2023-01-30T06:01:05.647Z,99055.75
2023-01-30T06:03:33.012Z,99065.38
2023-01-30T06:06:02.496Z,99060.72
2023-01-30T06:08:30.062Z,99056.16
2023-01-30T06:11:08.522Z,99086.63
2023-01-30T06:13:36.380Z,99085.88
2023-01-30T06:16:03.499Z,99104.09
2023-01-30T06:18:31.098Z,99123.13
2023-01-30T06:20:58.199Z,99124.22
2023-01-30T06:23:25.121Z,99111.78
2023-01-30T06:25:57.211Z,99086.31
2023-01-30T06:28:26.071Z,99116.34
2023-01-30T06:30:55.410Z,99103.50
2023-01-30T06:33:24.981Z,99088.72
2023-01-30T06:35:54.432Z,99087.09
2023-01-30T06:38:21.154Z,99122.22
2023-01-30T06:40:49.749Z,99103.66
2023-01-30T06:43:17.103Z,99118.72
2023-01-30T06:45:44.154Z,99123.81
2023-01-30T06:48:11.007Z,99108.63
2023-01-30T06:50:37.752Z,99119.91
2023-01-30T06:53:07.049Z,99134.38
2023-01-30T06:55:35.840Z,99114.47
2023-01-30T06:58:10.023Z,99134.34
2023-01-30T07:00:39.640Z,99133.31
2023-01-30T07:03:10.441Z,99132.78
2023-01-30T07:05:39.328Z,99119.88
2023-01-30T07:08:06.043Z,99129.16
2023-01-30T07:10:32.901Z,99150.47
2023-01-30T07:12:59.927Z,99132.78
2023-01-30T07:15:26.677Z,99141.22
2023-01-30T07:17:57.295Z,99163.31
2023-01-30T07:20:27.346Z,99130.84
2023-01-30T07:22:57.757Z,99172.44
2023-01-30T07:25:28.674Z,99129.97
2023-01-30T07:28:02.127Z,99162.13
2023-01-30T07:30:31.812Z,99167.31
2023-01-30T07:33:00.166Z,99162.03
2023-01-30T07:35:30.395Z,99166.06
2023-01-30T07:37:57.266Z,99174.44
2023-01-30T07:40:26.880Z,99178.81
2023-01-30T07:43:05.175Z,99179.19
2023-01-30T07:45:39.958Z,99158.53
2023-01-30T07:48:07.790Z,99171.34
2023-01-30T07:50:34.557Z,99174.19
2023-01-30T07:53:04.606Z,99170.75
2023-01-30T07:55:31.472Z,99156.31
2023-01-30T07:57:58.389Z,99153.34
2023-01-30T08:00:25.349Z,99133.84
2023-01-30T08:02:54.806Z,99170.19
2023-01-30T08:05:24.140Z,99134.16
2023-01-30T08:07:51.060Z,99133.66
2023-01-30T08:10:18.298Z,99154.63
2023-01-30T08:12:47.144Z,99185.56
2023-01-30T08:15:13.975Z,99175.72
2023-01-30T08:17:40.886Z,99161.81
2023-01-30T08:20:08.565Z,99150.56
2023-01-30T08:22:35.465Z,99137.59
2023-01-30T08:25:02.321Z,99135.22
2023-01-30T08:27:29.029Z,99152.13
2023-01-30T08:29:55.860Z,99142.81
2023-01-30T08:32:25.364Z,99149.09
2023-01-30T08:34:54.013Z,99180.03
2023-01-30T08:37:21.157Z,99187.50
2023-01-30T08:39:50.609Z,99151.41
2023-01-30T08:42:17.309Z,99196.09
2023-01-30T08:44:44.061Z,99194.31
2023-01-30T08:47:11.047Z,99182.00
2023-01-30T08:49:37.709Z,99175.69
2023-01-30T08:52:04.271Z,99205.13
2023-01-30T08:54:36.302Z,99172.53
2023-01-30T08:57:02.727Z,99214.03
2023-01-30T08:59:29.150Z,99220.41
2023-01-30T09:01:55.650Z,99218.56
2023-01-30T09:04:24.915Z,99212.16
2023-01-30T09:06:54.425Z,99213.94
2023-01-30T09:09:20.959Z,99196.09
2023-01-30T09:11:48.245Z,99217.75
2023-01-30T09:14:19.890Z,99226.59
2023-01-30T09:16:56.435Z,99222.16
2023-01-30T09:19:27.744Z,99234.19
2023-01-30T09:21:57.074Z,99234.56
2023-01-30T09:24:27.771Z,99210.34
2023-01-30T09:26:58.876Z,99235.72
2023-01-30T09:29:28.492Z,99243.25
2023-01-30T09:31:56.586Z,99224.63
2023-01-30T09:34:28.636Z,99232.94
2023-01-30T09:36:56.708Z,99246.34
2023-01-30T09:39:24.909Z,99223.47
2023-01-30T09:42:20.666Z,99256.88
2023-01-30T09:45:16.178Z,99254.75
2023-01-30T09:48:07.027Z,99256.59
2023-01-30T09:50:45.675Z,99253.47
2023-01-30T09:53:34.429Z,99249.94
2023-01-30T09:56:01.757Z,99215.63
2023-01-30T09:58:55.129Z,99237.34
2023-01-30T10:01:57.233Z,99232.28
2023-01-30T10:04:39.040Z,99259.53
2023-01-30T10:08:08.615Z,99249.97
2023-01-30T10:10:40.012Z,99209.91
2023-01-30T10:13:15.942Z,99228.25
2023-01-30T10:15:51.026Z,99245.13
2023-01-30T10:18:51.030Z,99250.41
2023-01-30T10:21:36.418Z,99251.50
2023-01-30T10:24:37.059Z,99252.16
2023-01-30T10:27:10.263Z,99250.56
2023-01-30T10:29:39.871Z,99239.13
2023-01-30T10:32:18.581Z,99270.41
2023-01-30T10:34:50.301Z,99270.81
2023-01-30T10:37:42.495Z,99262.56
2023-01-30T10:40:25.339Z,99245.53
2023-01-30T10:43:12.136Z,99232.50
2023-01-30T10:45:54.517Z,99245.41
2023-01-30T10:48:49.461Z,99238.28
2023-01-30T10:51:55.946Z,99225.25
2023-01-30T10:54:45.592Z,99220.19
2023-01-30T10:57:30.291Z,99193.22
2023-01-30T11:00:10.539Z,99157.75
2023-01-30T11:03:05.186Z,99192.69
2023-01-30T11:05:45.289Z,99189.03
2023-01-30T11:08:19.644Z,99188.88
2023-01-30T11:10:46.270Z,99146.91
2023-01-30T11:13:32.446Z,99174.75
2023-01-30T11:16:06.621Z,99160.44
2023-01-30T11:19:17.689Z,99140.88
2023-01-30T11:21:34.926Z,99168.09
2023-01-30T11:24:17.172Z,99191.28
2023-01-30T11:26:47.726Z,99158.50
2023-01-30T11:29:37.909Z,99157.59
2023-01-30T11:32:11.648Z,99162.72
2023-01-30T11:34:38.154Z,99133.97
2023-01-30T11:37:41.700Z,99167.94
2023-01-30T11:40:25.267Z,99165.22
2023-01-30T11:43:04.481Z,99158.09
2023-01-30T11:45:38.042Z,99153.53
2023-01-30T11:48:31.647Z,99141.75
2023-01-30T11:51:04.339Z,99109.66
2023-01-30T11:53:39.852Z,99121.16
2023-01-30T11:56:15.823Z,99110.63
2023-01-30T11:58:46.290Z,99114.13
2023-01-30T12:01:14.168Z,99114.13
2023-01-30T12:03:54.352Z,99120.84
2023-01-30T12:06:33.162Z,99107.09
2023-01-30T12:09:00.339Z,99115.47
2023-01-30T12:11:45.260Z,99106.53
2023-01-30T12:14:37.177Z,99096.28
2023-01-30T12:17:26.687Z,99086.09
2023-01-30T12:20:00.177Z,99097.09
2023-01-30T12:22:38.406Z,99088.81
2023-01-30T12:25:21.106Z,99077.03
2023-01-30T12:30:43.573Z,99084.06
2023-01-30T12:33:15.391Z,99088.91
2023-01-30T12:36:00.622Z,99093.84
2023-01-30T12:38:36.454Z,99082.09
2023-01-30T12:41:08.929Z,99086.19
2023-01-30T12:44:05.186Z,99072.53
2023-01-30T12:46:40.193Z,99080.81
2023-01-30T12:49:25.088Z,99058.34
2023-01-30T12:52:04.294Z,99070.50
2023-01-30T12:54:56.448Z,99070.25
2023-01-30T12:57:35.133Z,99054.38
2023-01-30T13:00:36.994Z,99075.06
2023-01-30T13:03:35.275Z,99065.75
2023-01-30T13:06:20.008Z,99035.56
2023-01-30T13:08:56.366Z,99075.25
2023-01-30T13:11:40.537Z,99065.22
2023-01-30T13:14:28.786Z,99057.63
2023-01-30T13:17:03.787Z,99059.53
2023-01-30T13:19:44.173Z,99065.09
2023-01-30T13:22:19.585Z,99068.56
2023-01-30T13:25:25.189Z,99050.34
2023-01-30T13:27:58.195Z,99047.44
2023-01-30T13:30:27.653Z,99045.94
2023-01-30T13:33:00.933Z,98994.00
2023-01-30T13:35:46.839Z,99042.22
2023-01-30T13:38:22.384Z,99020.25
2023-01-30T13:40:51.164Z,99027.06
2023-01-30T13:43:30.400Z,99011.16
2023-01-30T13:46:02.858Z,99027.13
2023-01-30T13:48:57.280Z,99028.44
2023-01-30T13:51:26.704Z,99030.03
2023-01-30T13:54:26.819Z,99020.47
2023-01-30T13:57:12.972Z,99033.97
2023-01-30T14:00:16.773Z,99026.88
2023-01-30T14:03:10.572Z,99033.22
2023-01-30T14:05:52.801Z,99032.53
2023-01-30T14:08:27.754Z,99011.88
2023-01-30T14:10:56.563Z,98991.31
2023-01-30T14:13:27.677Z,98997.94
2023-01-30T14:16:01.040Z,99002.47
2023-01-30T14:18:36.591Z,98974.78
2023-01-30T14:21:20.260Z,98987.19
2023-01-30T14:24:04.876Z,98996.19
2023-01-30T14:26:53.268Z,99016.66
2023-01-30T14:29:37.979Z,99017.50
2023-01-30T14:32:14.123Z,99023.94
2023-01-30T14:34:50.233Z,99020.13
2023-01-30T14:37:35.332Z,99008.91
2023-01-30T14:40:03.457Z,98999.31
2023-01-30T14:42:31.329Z,99011.88
2023-01-30T14:45:02.387Z,98969.06
2023-01-30T14:47:37.562Z,99010.50
2023-01-30T14:50:23.062Z,99007.59
2023-01-30T14:52:55.269Z,99022.84
2023-01-30T14:55:28.641Z,99033.50
2023-01-30T14:58:02.266Z,98989.69
2023-01-30T15:00:38.169Z,99028.03
2023-01-30T15:03:16.894Z,99016.31
2023-01-30T15:05:45.930Z,99002.41
2023-01-30T15:08:20.693Z,98999.59
2023-01-30T15:11:01.904Z,99014.38
2023-01-30T15:13:31.150Z,99018.47
2023-01-30T15:16:15.624Z,99008.97
2023-01-30T15:19:05.263Z,99021.09
2023-01-30T15:22:09.067Z,99031.31
2023-01-30T15:25:18.240Z,99029.59
2023-01-30T15:28:04.954Z,99028.56
2023-01-30T15:30:57.062Z,99033.31
2023-01-30T15:33:31.561Z,99041.63
2023-01-30T15:36:17.172Z,99042.47
2023-01-30T15:38:43.713Z,99038.50
2023-01-30T15:41:10.912Z,99046.28
2023-01-30T15:44:03.362Z,99024.97
2023-01-30T15:46:35.880Z,99032.53
2023-01-30T15:49:10.475Z,99018.72
2023-01-30T15:51:38.084Z,99020.50
2023-01-30T15:54:10.570Z,99049.88
2023-01-30T15:56:39.892Z,99046.50
2023-01-30T15:59:07.168Z,99021.84
2023-01-30T16:01:34.068Z,99017.13
2023-01-30T16:04:00.716Z,99023.97
2023-01-30T16:06:34.719Z,99058.25
2023-01-30T16:09:21.875Z,99050.59
2023-01-30T16:11:48.449Z,99018.38
2023-01-30T16:14:19.149Z,99044.94
2023-01-30T16:16:52.263Z,99037.19
2023-01-30T16:19:30.390Z,99056.19
2023-01-30T16:22:17.155Z,99061.00
2023-01-30T16:24:47.807Z,99062.16
2023-01-30T16:27:21.834Z,99049.22
2023-01-30T16:29:53.120Z,99064.56
2023-01-30T16:32:26.009Z,99055.13
2023-01-30T16:35:36.006Z,99067.81
2023-01-30T16:38:03.355Z,99036.59
2023-01-30T16:40:44.415Z,99065.72
2023-01-30T16:43:23.509Z,99056.28
2023-01-30T16:45:52.721Z,99067.59
2023-01-30T16:48:20.783Z,99072.09
2023-01-30T16:51:00.906Z,99056.50
2023-01-30T16:53:33.969Z,99084.44
2023-01-30T16:56:10.734Z,99083.72
2023-01-30T16:58:38.518Z,99062.22
2023-01-30T17:01:08.938Z,99088.72
2023-01-30T17:03:39.176Z,99096.69
2023-01-30T17:06:15.094Z,99094.56
2023-01-30T17:08:47.489Z,99103.38
2023-01-30T17:11:34.472Z,99106.06
2023-01-30T17:14:19.557Z,99112.47
2023-01-30T17:17:08.594Z,99119.06
2023-01-30T17:19:36.137Z,99117.06
2023-01-30T17:22:06.176Z,99116.59
2023-01-30T17:24:32.796Z,99099.91
2023-01-30T17:27:04.448Z,99133.28
2023-01-30T17:29:42.470Z,99128.53
2023-01-30T17:32:15.364Z,99124.47
2023-01-30T17:34:42.320Z,99128.47
2023-01-30T17:37:15.417Z,99139.69
2023-01-30T17:39:42.088Z,99138.88
2023-01-30T17:42:13.216Z,99145.78
2023-01-30T17:44:40.740Z,99147.84
2023-01-30T17:47:11.051Z,99140.81
2023-01-30T17:49:37.681Z,99132.41
2023-01-30T17:52:07.276Z,99135.28
2023-01-30T17:54:33.831Z,99129.59
2023-01-30T17:57:05.918Z,99157.50
2023-01-30T17:59:33.539Z,99154.22
2023-01-30T18:02:00.906Z,99155.72
2023-01-30T18:04:27.451Z,99133.66
2023-01-30T18:07:03.439Z,99153.94
2023-01-30T18:09:32.631Z,99137.84
2023-01-30T18:12:02.086Z,99167.97
2023-01-30T18:14:32.584Z,99150.38
2023-01-30T18:17:02.885Z,99133.06
2023-01-30T18:19:32.633Z,99159.00
2023-01-30T18:22:02.036Z,99152.09
2023-01-30T18:24:33.358Z,99144.16
2023-01-30T18:27:05.915Z,99165.63
2023-01-30T18:29:34.337Z,99159.47
2023-01-30T18:32:05.854Z,99161.91
2023-01-30T18:34:34.012Z,99156.41
2023-01-30T18:37:00.728Z,99165.63
2023-01-30T18:39:30.408Z,99165.34
2023-01-30T18:42:04.059Z,99136.84
2023-01-30T18:44:33.790Z,99152.50
2023-01-30T18:47:05.804Z,99146.44
2023-01-30T18:49:32.449Z,99154.31
2023-01-30T18:52:02.013Z,99162.94
2023-01-30T18:54:30.975Z,99159.47
2023-01-30T18:57:35.699Z,99166.28
2023-01-30T19:00:03.722Z,99106.63
2023-01-30T19:02:31.796Z,99171.91
2023-01-30T19:05:01.343Z,99162.31
2023-01-30T19:08:06.446Z,99164.41
2023-01-30T19:10:35.735Z,99121.50
2023-01-30T19:13:21.138Z,99161.22
2023-01-30T19:16:39.109Z,99171.91
2023-01-30T19:19:08.072Z,99133.66
2023-01-30T19:21:35.736Z,99170.78
2023-01-30T19:24:13.552Z,99174.59
2023-01-30T19:26:40.582Z,99155.34
2023-01-30T19:29:07.084Z,99163.44
2023-01-30T19:31:33.808Z,99134.41
2023-01-30T19:34:02.786Z,99143.50
2023-01-30T19:36:34.255Z,99150.31
2023-01-30T19:39:05.919Z,99158.81
2023-01-30T19:41:35.006Z,99170.41
2023-01-30T19:44:07.027Z,99181.72
2023-01-30T19:46:33.820Z,99187.91
2023-01-30T19:49:04.454Z,99183.44
2023-01-30T19:51:34.224Z,99188.38
2023-01-30T19:54:06.517Z,99193.53
2023-01-30T19:56:33.699Z,99182.78
2023-01-30T19:59:02.414Z,99171.09
2023-01-30T20:01:37.619Z,99200.47
2023-01-30T20:04:05.213Z,99194.94
2023-01-30T20:06:36.275Z,99173.03
2023-01-30T20:09:10.005Z,99195.59
2023-01-30T20:11:38.419Z,99211.78
2023-01-30T20:14:06.978Z,99199.78
2023-01-30T20:16:36.740Z,99211.00
2023-01-30T20:19:11.577Z,99200.66
2023-01-30T20:21:38.164Z,99216.63
2023-01-30T20:24:05.293Z,99210.44
2023-01-30T20:26:39.462Z,99225.91
2023-01-30T20:29:08.053Z,99231.34
2023-01-30T20:31:35.114Z,99231.44
2023-01-30T20:34:07.708Z,99220.56
2023-01-30T20:36:34.712Z,99223.19
2023-01-30T20:39:06.412Z,99225.81
2023-01-30T20:41:35.577Z,99229.75
2023-01-30T20:44:02.716Z,99228.53
2023-01-30T20:46:44.437Z,99231.59
2023-01-30T20:49:19.802Z,99224.47
2023-01-30T20:51:47.624Z,99226.91
2023-01-30T20:54:14.814Z,99232.63
2023-01-30T20:56:46.850Z,99227.38
2023-01-30T20:59:15.890Z,99226.53
2023-01-30T21:02:03.123Z,99215.22
2023-01-30T21:04:33.378Z,99202.00
2023-01-30T21:07:01.944Z,99219.19
2023-01-30T21:09:32.451Z,99203.19
2023-01-30T21:12:02.385Z,99198.03
2023-01-30T21:14:30.256Z,99207.41
2023-01-30T21:16:57.300Z,99212.63
2023-01-30T21:19:24.175Z,99213.13
2023-01-30T21:21:54.276Z,99230.66
2023-01-30T21:24:27.224Z,99231.09
2023-01-30T21:26:55.389Z,99215.84
2023-01-30T21:29:25.280Z,99203.94
2023-01-30T21:31:52.364Z,99230.34
2023-01-30T21:34:18.973Z,99217.72
2023-01-30T21:37:05.455Z,99209.41
2023-01-30T21:39:53.537Z,99211.75
2023-01-30T21:42:39.261Z,99210.94
2023-01-30T21:45:06.834Z,99202.16
2023-01-30T21:47:33.486Z,99218.44
2023-01-30T21:49:59.929Z,99228.28
2023-01-30T21:52:26.361Z,99208.38
2023-01-30T21:54:52.855Z,99207.63
2023-01-30T21:57:19.323Z,99234.84
2023-01-30T21:59:46.099Z,99223.84
2023-01-30T22:02:12.509Z,99244.09
2023-01-30T22:04:39.035Z,99229.22
2023-01-30T22:07:06.948Z,99229.31
2023-01-30T22:09:36.679Z,99236.97
2023-01-30T22:12:06.143Z,99224.81
2023-01-30T22:14:35.247Z,99241.47
2023-01-30T22:17:01.864Z,99238.31
2023-01-30T22:19:35.174Z,99248.22
2023-01-30T22:22:05.074Z,99238.00
2023-01-30T22:24:31.705Z,99252.59
2023-01-30T22:26:58.799Z,99249.63
2023-01-30T22:29:25.312Z,99239.34
2023-01-30T22:31:51.870Z,99242.78
2023-01-30T22:34:18.661Z,99238.00
2023-01-30T22:36:45.091Z,99238.69
2023-01-30T22:39:11.601Z,99236.06
2023-01-30T22:41:40.804Z,99242.97
2023-01-30T22:44:09.160Z,99245.59
2023-01-30T22:46:37.538Z,99246.34
2023-01-30T22:49:06.030Z,99240.19
2023-01-30T22:51:38.656Z,99249.88
2023-01-30T22:54:10.747Z,99247.22
2023-01-30T22:56:40.754Z,99247.22
2023-01-30T22:59:08.184Z,99240.06
2023-01-30T23:01:38.328Z,99237.56
2023-01-30T23:04:08.025Z,99232.78
2023-01-30T23:06:34.557Z,99238.09
2023-01-30T23:09:01.408Z,99236.72
2023-01-30T23:11:39.660Z,99226.63
2023-01-30T23:14:10.388Z,99227.47
2023-01-30T23:16:40.269Z,99229.31
2023-01-30T23:19:08.397Z,99221.72
2023-01-30T23:21:43.856Z,99229.78
2023-01-30T23:24:16.240Z,99226.63
2023-01-30T23:26:47.186Z,99224.06
2023-01-30T23:29:15.598Z,99213.53
2023-01-30T23:31:44.067Z,99216.47
2023-01-30T23:34:13.990Z,99203.22
2023-01-30T23:36:40.611Z,99206.56
2023-01-30T23:39:11.944Z,99202.19
2023-01-30T23:41:44.220Z,99208.38
2023-01-30T23:44:10.906Z,99200.50
2023-01-30T23:46:40.695Z,99196.78
2023-01-30T23:49:10.181Z,99185.56
2023-01-30T23:51:41.326Z,99191.53
2023-01-30T23:54:12.095Z,99184.31
2023-01-30T23:56:41.949Z,99187.84
2023-01-30T23:59:11.749Z,99187.84
